sensor_id;sensor_type;location;lat;lon;timestamp;pressure;altitude;pressure_sealevel;temperature;humidity
62779;BME280;48821;48.796;2.396;2024-03-08T00:01:19;100920.16;;;9.82;56.10
62779;BME280;48821;48.796;2.396;2024-03-08T00:02:31;100912.34;;;9.79;55.95
62779;BME280;48821;48.796;2.396;2024-03-08T00:03:43;100913.25;;;9.78;56.34
62779;BME280;48821;48.796;2.396;2024-03-08T00:04:55;100910.63;;;9.78;56.08
62779;BME280;48821;48.796;2.396;2024-03-08T00:06:07;100916.75;;;9.78;56.04
62779;BME280;48821;48.796;2.396;2024-03-08T00:07:19;100907.19;;;9.76;55.95
62779;BME280;48821;48.796;2.396;2024-03-08T00:08:32;100920.28;;;9.77;55.95
62779;BME280;48821;48.796;2.396;2024-03-08T00:09:44;100913.34;;;9.75;56.08
62779;BME280;48821;48.796;2.396;2024-03-08T00:10:56;100915.16;;;9.73;56.16
62779;BME280;48821;48.796;2.396;2024-03-08T00:12:08;100905.53;;;9.72;56.27
62779;BME280;48821;48.796;2.396;2024-03-08T00:13:20;100907.34;;;9.70;55.92
62779;BME280;48821;48.796;2.396;2024-03-08T00:14:32;100905.63;;;9.68;56.11
62779;BME280;48821;48.796;2.396;2024-03-08T00:15:44;100904.72;;;9.70;56.32
62779;BME280;48821;48.796;2.396;2024-03-08T00:16:56;100896.94;;;9.66;55.94
62779;BME280;48821;48.796;2.396;2024-03-08T00:18:08;100901.31;;;9.66;56.47
62779;BME280;48821;48.796;2.396;2024-03-08T00:19:20;100905.72;;;9.65;56.33
62779;BME280;48821;48.796;2.396;2024-03-08T00:20:31;100903.13;;;9.64;56.31
62779;BME280;48821;48.796;2.396;2024-03-08T00:21:43;100919.69;;;9.66;56.18
62779;BME280;48821;48.796;2.396;2024-03-08T00:22:56;100901.38;;;9.64;56.18
62779;BME280;48821;48.796;2.396;2024-03-08T00:24:08;100892.69;;;9.61;56.41
62779;BME280;48821;48.796;2.396;2024-03-08T00:25:20;100897.94;;;9.61;56.04
62779;BME280;48821;48.796;2.396;2024-03-08T00:26:32;100898.88;;;9.58;56.47
62779;BME280;48821;48.796;2.396;2024-03-08T00:27:43;100892.75;;;9.59;56.51
62779;BME280;48821;48.796;2.396;2024-03-08T00:28:55;100901.50;;;9.58;56.55
62779;BME280;48821;48.796;2.396;2024-03-08T00:30:07;100886.69;;;9.57;56.38
62779;BME280;48821;48.796;2.396;2024-03-08T00:31:18;100891.06;;;9.56;56.25
62779;BME280;48821;48.796;2.396;2024-03-08T00:32:30;100886.75;;;9.55;56.45
62779;BME280;48821;48.796;2.396;2024-03-08T00:33:42;100894.59;;;9.55;56.44
62779;BME280;48821;48.796;2.396;2024-03-08T00:34:54;100882.44;;;9.53;56.31
62779;BME280;48821;48.796;2.396;2024-03-08T00:36:06;100876.31;;;9.52;56.55
62779;BME280;48821;48.796;2.396;2024-03-08T00:37:18;100874.63;;;9.50;56.36
62779;BME280;48821;48.796;2.396;2024-03-08T00:38:29;100874.63;;;9.50;56.69
62779;BME280;48821;48.796;2.396;2024-03-08T00:39:41;100879.00;;;9.49;56.71
62779;BME280;48821;48.796;2.396;2024-03-08T00:40:53;100868.56;;;9.48;56.38
62779;BME280;48821;48.796;2.396;2024-03-08T00:42:06;100872.06;;;9.47;56.94
62779;BME280;48821;48.796;2.396;2024-03-08T00:43:17;100867.69;;;9.47;56.73
62779;BME280;48821;48.796;2.396;2024-03-08T00:44:29;100878.25;;;9.45;56.96
62779;BME280;48821;48.796;2.396;2024-03-08T00:45:41;100874.69;;;9.47;56.85
62779;BME280;48821;48.796;2.396;2024-03-08T00:46:53;100866.00;;;9.44;56.92
62779;BME280;48821;48.796;2.396;2024-03-08T00:48:05;100874.69;;;9.47;57.22
62779;BME280;48821;48.796;2.396;2024-03-08T00:49:17;100861.66;;;9.43;56.89
62779;BME280;48821;48.796;2.396;2024-03-08T00:50:29;100862.56;;;9.42;56.79
62779;BME280;48821;48.796;2.396;2024-03-08T00:51:41;100851.28;;;9.39;56.86
62779;BME280;48821;48.796;2.396;2024-03-08T00:52:53;100864.38;;;9.40;57.19
62779;BME280;48821;48.796;2.396;2024-03-08T00:54:04;100851.28;;;9.39;57.27
62779;BME280;48821;48.796;2.396;2024-03-08T00:55:17;100859.13;;;9.40;57.05
62779;BME280;48821;48.796;2.396;2024-03-08T00:56:29;100853.97;;;9.37;57.04
62779;BME280;48821;48.796;2.396;2024-03-08T00:57:41;100849.59;;;9.36;57.16
62779;BME280;48821;48.796;2.396;2024-03-08T00:58:53;100848.78;;;9.34;57.04
62779;BME280;48821;48.796;2.396;2024-03-08T01:00:06;100846.22;;;9.32;56.92
62779;BME280;48821;48.796;2.396;2024-03-08T01:01:19;100852.41;;;9.30;56.74
62779;BME280;48821;48.796;2.396;2024-03-08T01:02:31;100835.03;;;9.26;57.02
62779;BME280;48821;48.796;2.396;2024-03-08T01:03:43;100841.09;;;9.26;57.15
62779;BME280;48821;48.796;2.396;2024-03-08T01:04:55;100835.09;;;9.22;57.14
62779;BME280;48821;48.796;2.396;2024-03-08T01:06:07;100843.78;;;9.25;57.49
62779;BME280;48821;48.796;2.396;2024-03-08T01:07:19;100843.78;;;9.25;57.34
62779;BME280;48821;48.796;2.396;2024-03-08T01:08:31;100837.66;;;9.24;57.30
62779;BME280;48821;48.796;2.396;2024-03-08T01:09:44;100827.28;;;9.21;57.70
62779;BME280;48821;48.796;2.396;2024-03-08T01:10:56;100829.84;;;9.22;57.53
62779;BME280;48821;48.796;2.396;2024-03-08T01:12:08;100833.34;;;9.21;57.49
62779;BME280;48821;48.796;2.396;2024-03-08T01:13:20;100838.59;;;9.21;57.22
62779;BME280;48821;48.796;2.396;2024-03-08T01:14:33;100829.91;;;9.19;57.52
62779;BME280;48821;48.796;2.396;2024-03-08T01:15:45;100829.06;;;9.19;57.24
62779;BME280;48821;48.796;2.396;2024-03-08T01:16:56;100830.84;;;9.17;57.63
62779;BME280;48821;48.796;2.396;2024-03-08T01:18:08;100832.59;;;9.18;57.89
62779;BME280;48821;48.796;2.396;2024-03-08T01:19:20;100821.31;;;9.14;57.26
62779;BME280;48821;48.796;2.396;2024-03-08T01:20:32;100813.50;;;9.13;57.96
62779;BME280;48821;48.796;2.396;2024-03-08T01:21:44;100816.06;;;9.14;57.84
62779;BME280;48821;48.796;2.396;2024-03-08T01:22:55;100815.19;;;9.14;57.81
62779;BME280;48821;48.796;2.396;2024-03-08T01:24:07;100814.34;;;9.13;57.90
62779;BME280;48821;48.796;2.396;2024-03-08T01:25:19;100814.34;;;9.13;57.67
62779;BME280;48821;48.796;2.396;2024-03-08T01:26:31;100807.44;;;9.09;57.54
62779;BME280;48821;48.796;2.396;2024-03-08T01:27:43;100811.75;;;9.11;58.10
62779;BME280;48821;48.796;2.396;2024-03-08T01:28:55;100808.31;;;9.09;57.72
62779;BME280;48821;48.796;2.396;2024-03-08T01:30:07;100810.06;;;9.10;58.06
62779;BME280;48821;48.796;2.396;2024-03-08T01:31:19;100795.31;;;9.05;57.94
62779;BME280;48821;48.796;2.396;2024-03-08T01:32:31;100798.81;;;9.05;57.90
62779;BME280;48821;48.796;2.396;2024-03-08T01:33:43;100800.56;;;9.05;57.65
62779;BME280;48821;48.796;2.396;2024-03-08T01:34:55;100804.00;;;9.07;57.90
62779;BME280;48821;48.796;2.396;2024-03-08T01:36:07;100798.81;;;9.05;57.84
62779;BME280;48821;48.796;2.396;2024-03-08T01:37:19;100801.44;;;9.05;57.82
62779;BME280;48821;48.796;2.396;2024-03-08T01:38:31;100803.25;;;9.03;58.05
62779;BME280;48821;48.796;2.396;2024-03-08T01:39:43;100797.13;;;9.03;58.33
62779;BME280;48821;48.796;2.396;2024-03-08T01:40:55;100799.75;;;9.03;57.96
62779;BME280;48821;48.796;2.396;2024-03-08T01:42:06;100791.03;;;9.02;57.92
62779;BME280;48821;48.796;2.396;2024-03-08T01:43:24;100795.44;;;9.00;58.19
62779;BME280;48821;48.796;2.396;2024-03-08T01:44:37;100785.00;;;8.98;58.11
62779;BME280;48821;48.796;2.396;2024-03-08T01:45:49;100781.53;;;8.96;58.41
62779;BME280;48821;48.796;2.396;2024-03-08T01:47:01;100781.53;;;8.98;58.59
62779;BME280;48821;48.796;2.396;2024-03-08T01:48:14;100778.03;;;8.97;57.62
62779;BME280;48821;48.796;2.396;2024-03-08T01:49:26;100778.03;;;8.97;58.09
62779;BME280;48821;48.796;2.396;2024-03-08T01:50:37;100777.16;;;8.97;58.26
62779;BME280;48821;48.796;2.396;2024-03-08T01:51:49;100776.34;;;8.95;58.35
62779;BME280;48821;48.796;2.396;2024-03-08T01:53:01;100770.28;;;8.93;58.10
62779;BME280;48821;48.796;2.396;2024-03-08T01:54:14;100779.84;;;8.95;58.38
62779;BME280;48821;48.796;2.396;2024-03-08T01:55:26;100774.66;;;8.92;58.76
62779;BME280;48821;48.796;2.396;2024-03-08T01:56:38;100776.41;;;8.93;58.36
62779;BME280;48821;48.796;2.396;2024-03-08T01:57:49;100770.34;;;8.89;58.11
62779;BME280;48821;48.796;2.396;2024-03-08T01:59:01;100769.50;;;8.89;58.28
62779;BME280;48821;48.796;2.396;2024-03-08T02:00:13;100767.84;;;8.85;57.89
62779;BME280;48821;48.796;2.396;2024-03-08T02:01:24;100773.91;;;8.87;58.18
62779;BME280;48821;48.796;2.396;2024-03-08T02:02:36;100767.09;;;8.81;58.31
62779;BME280;48821;48.796;2.396;2024-03-08T02:03:47;100767.03;;;8.83;58.71
62779;BME280;48821;48.796;2.396;2024-03-08T02:05:00;100759.25;;;8.80;58.67
62779;BME280;48821;48.796;2.396;2024-03-08T02:06:12;100766.22;;;8.81;58.61
62779;BME280;48821;48.796;2.396;2024-03-08T02:07:25;100761.06;;;8.77;58.30
62779;BME280;48821;48.796;2.396;2024-03-08T02:08:36;100754.09;;;8.76;58.70
62779;BME280;48821;48.796;2.396;2024-03-08T02:09:48;100749.75;;;8.75;58.44
62779;BME280;48821;48.796;2.396;2024-03-08T02:11:00;100748.13;;;8.71;58.54
62779;BME280;48821;48.796;2.396;2024-03-08T02:12:12;100745.44;;;8.73;58.77
62779;BME280;48821;48.796;2.396;2024-03-08T02:13:25;100743.69;;;8.73;59.02
62779;BME280;48821;48.796;2.396;2024-03-08T02:14:37;100742.88;;;8.71;58.67
62779;BME280;48821;48.796;2.396;2024-03-08T02:15:52;100740.25;;;8.71;58.50
62779;BME280;48821;48.796;2.396;2024-03-08T02:17:03;100724.75;;;8.62;58.70
62779;BME280;48821;48.796;2.396;2024-03-08T02:18:15;100735.97;;;8.67;58.91
62779;BME280;48821;48.796;2.396;2024-03-08T02:19:27;100735.09;;;8.68;58.50
62779;BME280;48821;48.796;2.396;2024-03-08T02:20:39;100739.50;;;8.66;58.95
62779;BME280;48821;48.796;2.396;2024-03-08T02:21:51;100729.13;;;8.61;58.82
62779;BME280;48821;48.796;2.396;2024-03-08T02:23:05;100735.22;;;8.62;59.12
62779;BME280;48821;48.796;2.396;2024-03-08T02:24:15;100734.38;;;8.61;58.63
62779;BME280;48821;48.796;2.396;2024-03-08T02:25:27;100730.91;;;8.61;58.91
62779;BME280;48821;48.796;2.396;2024-03-08T02:26:39;100720.47;;;8.59;58.92
62779;BME280;48821;48.796;2.396;2024-03-08T02:27:51;100716.97;;;8.57;59.35
62779;BME280;48821;48.796;2.396;2024-03-08T02:29:03;100715.25;;;8.56;59.35
62779;BME280;48821;48.796;2.396;2024-03-08T02:30:15;100709.97;;;8.58;59.13
62779;BME280;48821;48.796;2.396;2024-03-08T02:31:27;100710.81;;;8.60;59.08
62779;BME280;48821;48.796;2.396;2024-03-08T02:32:39;100706.47;;;8.57;59.43
62779;BME280;48821;48.796;2.396;2024-03-08T02:33:51;100707.34;;;8.58;59.57
62779;BME280;48821;48.796;2.396;2024-03-08T02:35:04;100707.31;;;8.61;59.51
62779;BME280;48821;48.796;2.396;2024-03-08T02:36:16;100705.56;;;8.60;59.34
62779;BME280;48821;48.796;2.396;2024-03-08T02:37:28;100708.19;;;8.60;59.47
62779;BME280;48821;48.796;2.396;2024-03-08T02:38:40;100703.88;;;8.57;59.22
62779;BME280;48821;48.796;2.396;2024-03-08T02:39:52;100700.34;;;8.60;59.68
62779;BME280;48821;48.796;2.396;2024-03-08T02:41:04;100696.06;;;8.55;59.04
62779;BME280;48821;48.796;2.396;2024-03-08T02:42:16;100698.63;;;8.57;59.21
62779;BME280;48821;48.796;2.396;2024-03-08T02:43:28;100684.75;;;8.53;59.16
62779;BME280;48821;48.796;2.396;2024-03-08T02:44:43;100690.81;;;8.55;59.08
62779;BME280;48821;48.796;2.396;2024-03-08T02:45:55;100689.06;;;8.54;59.22
62779;BME280;48821;48.796;2.396;2024-03-08T02:47:07;100688.25;;;8.52;59.64
62779;BME280;48821;48.796;2.396;2024-03-08T02:48:19;100690.00;;;8.53;59.26
62779;BME280;48821;48.796;2.396;2024-03-08T02:49:31;100681.31;;;8.51;59.15
62779;BME280;48821;48.796;2.396;2024-03-08T02:50:43;100675.22;;;8.51;59.29
62779;BME280;48821;48.796;2.396;2024-03-08T02:51:54;100669.09;;;8.50;59.16
62779;BME280;48821;48.796;2.396;2024-03-08T02:53:07;100660.50;;;8.45;59.32
62779;BME280;48821;48.796;2.396;2024-03-08T02:54:19;100663.88;;;8.50;59.43
62779;BME280;48821;48.796;2.396;2024-03-08T02:55:32;100663.00;;;8.50;59.44
62779;BME280;48821;48.796;2.396;2024-03-08T02:56:47;100662.19;;;8.48;59.27
62779;BME280;48821;48.796;2.396;2024-03-08T02:57:58;100660.50;;;8.45;59.54
62779;BME280;48821;48.796;2.396;2024-03-08T02:59:10;100666.53;;;8.49;59.73
62779;BME280;48821;48.796;2.396;2024-03-08T03:00:23;100660.44;;;8.48;59.83
62779;BME280;48821;48.796;2.396;2024-03-08T03:01:35;100656.94;;;8.48;59.28
62779;BME280;48821;48.796;2.396;2024-03-08T03:02:47;100650.94;;;8.44;59.04
62779;BME280;48821;48.796;2.396;2024-03-08T03:03:58;100654.41;;;8.44;59.15
62779;BME280;48821;48.796;2.396;2024-03-08T03:05:10;100646.53;;;8.44;59.50
62779;BME280;48821;48.796;2.396;2024-03-08T03:06:21;100648.31;;;8.44;59.44
62779;BME280;48821;48.796;2.396;2024-03-08T03:07:33;100632.72;;;8.39;59.75
62779;BME280;48821;48.796;2.396;2024-03-08T03:08:45;100632.69;;;8.41;59.71
62779;BME280;48821;48.796;2.396;2024-03-08T03:09:57;100632.72;;;8.39;59.29
62779;BME280;48821;48.796;2.396;2024-03-08T03:11:09;100630.88;;;8.43;59.50
62779;BME280;48821;48.796;2.396;2024-03-08T03:12:21;100627.44;;;8.41;59.41
62779;BME280;48821;48.796;2.396;2024-03-08T03:13:33;100631.75;;;8.43;59.30
62779;BME280;48821;48.796;2.396;2024-03-08T03:14:45;100630.00;;;8.42;59.52
62779;BME280;48821;48.796;2.396;2024-03-08T03:15:57;100623.94;;;8.42;59.41
62779;BME280;48821;48.796;2.396;2024-03-08T03:17:08;100618.72;;;8.40;59.27
62779;BME280;48821;48.796;2.396;2024-03-08T03:18:21;100619.66;;;8.38;59.41
62779;BME280;48821;48.796;2.396;2024-03-08T03:19:34;100621.38;;;8.39;59.62
62779;BME280;48821;48.796;2.396;2024-03-08T03:20:46;100614.47;;;8.36;59.66
62779;BME280;48821;48.796;2.396;2024-03-08T03:21:56;100615.34;;;8.35;60.06
62779;BME280;48821;48.796;2.396;2024-03-08T03:23:09;100618.75;;;8.39;59.54
62779;BME280;48821;48.796;2.396;2024-03-08T03:24:20;100617.09;;;8.35;59.89
62779;BME280;48821;48.796;2.396;2024-03-08T03:25:31;100620.56;;;8.37;59.85
62779;BME280;48821;48.796;2.396;2024-03-08T03:26:45;100618.84;;;8.36;59.87
62779;BME280;48821;48.796;2.396;2024-03-08T03:27:57;100612.84;;;8.32;59.93
62779;BME280;48821;48.796;2.396;2024-03-08T03:29:10;100605.06;;;8.27;59.51
62779;BME280;48821;48.796;2.396;2024-03-08T03:30:23;100611.03;;;8.34;59.69
62779;BME280;48821;48.796;2.396;2024-03-08T03:31:36;100607.63;;;8.30;59.89
62779;BME280;48821;48.796;2.396;2024-03-08T03:32:49;100604.19;;;8.28;59.51
62779;BME280;48821;48.796;2.396;2024-03-08T03:34:01;100601.50;;;8.30;59.95
62779;BME280;48821;48.796;2.396;2024-03-08T03:35:14;100590.22;;;8.28;59.66
62779;BME280;48821;48.796;2.396;2024-03-08T03:36:29;100593.75;;;8.27;59.22
62779;BME280;48821;48.796;2.396;2024-03-08T03:37:40;100592.03;;;8.26;59.50
62779;BME280;48821;48.796;2.396;2024-03-08T03:38:53;100587.72;;;8.23;59.66
62779;BME280;48821;48.796;2.396;2024-03-08T03:40:15;100590.34;;;8.23;60.29
62779;BME280;48821;48.796;2.396;2024-03-08T03:41:29;100590.31;;;8.25;60.14
62779;BME280;48821;48.796;2.396;2024-03-08T03:42:40;100597.31;;;8.22;59.50
62779;BME280;48821;48.796;2.396;2024-03-08T03:43:52;100608.66;;;8.23;60.08
62779;BME280;48821;48.796;2.396;2024-03-08T03:45:05;100605.22;;;8.21;60.10
62779;BME280;48821;48.796;2.396;2024-03-08T03:46:17;100606.09;;;8.21;59.80
62779;BME280;48821;48.796;2.396;2024-03-08T03:47:29;100600.94;;;8.18;59.44
62779;BME280;48821;48.796;2.396;2024-03-08T03:48:41;100599.19;;;8.17;59.72
62779;BME280;48821;48.796;2.396;2024-03-08T03:49:52;100590.63;;;8.12;60.18
62779;BME280;48821;48.796;2.396;2024-03-08T03:51:04;100587.09;;;8.13;59.69
62779;BME280;48821;48.796;2.396;2024-03-08T03:52:16;100587.97;;;8.14;59.98
62779;BME280;48821;48.796;2.396;2024-03-08T03:53:28;100587.22;;;8.08;59.75
62779;BME280;48821;48.796;2.396;2024-03-08T03:54:40;100584.59;;;8.08;59.82
62779;BME280;48821;48.796;2.396;2024-03-08T03:55:53;100597.63;;;8.10;60.01
62779;BME280;48821;48.796;2.396;2024-03-08T03:57:05;100600.25;;;8.10;60.11
62779;BME280;48821;48.796;2.396;2024-03-08T03:58:17;100591.59;;;8.08;60.14
62779;BME280;48821;48.796;2.396;2024-03-08T03:59:32;100598.50;;;8.10;59.81
62779;BME280;48821;48.796;2.396;2024-03-08T04:00:44;100595.94;;;8.09;60.26
62779;BME280;48821;48.796;2.396;2024-03-08T04:01:56;100587.34;;;8.04;60.11
62779;BME280;48821;48.796;2.396;2024-03-08T04:03:08;100593.38;;;8.07;59.89
62779;BME280;48821;48.796;2.396;2024-03-08T04:04:21;100588.13;;;8.07;60.39
62779;BME280;48821;48.796;2.396;2024-03-08T04:05:32;100596.06;;;8.04;60.29
62779;BME280;48821;48.796;2.396;2024-03-08T04:06:44;100590.75;;;8.06;60.04
62779;BME280;48821;48.796;2.396;2024-03-08T04:07:56;100598.59;;;8.07;59.94
62779;BME280;48821;48.796;2.396;2024-03-08T04:09:08;100579.59;;;7.99;59.68
62779;BME280;48821;48.796;2.396;2024-03-08T04:10:20;100590.75;;;8.06;60.15
62779;BME280;48821;48.796;2.396;2024-03-08T04:11:32;100593.44;;;8.04;59.95
62779;BME280;48821;48.796;2.396;2024-03-08T04:12:45;100587.38;;;8.02;60.10
62779;BME280;48821;48.796;2.396;2024-03-08T04:13:56;100584.78;;;8.01;60.07
62779;BME280;48821;48.796;2.396;2024-03-08T04:15:08;100582.22;;;7.99;60.21
62779;BME280;48821;48.796;2.396;2024-03-08T04:16:19;100583.03;;;8.01;59.86
62779;BME280;48821;48.796;2.396;2024-03-08T04:17:31;100584.84;;;7.99;60.04
62779;BME280;48821;48.796;2.396;2024-03-08T04:18:43;100579.66;;;7.96;60.27
62779;BME280;48821;48.796;2.396;2024-03-08T04:19:56;100584.00;;;7.97;60.13
62779;BME280;48821;48.796;2.396;2024-03-08T04:21:08;100581.41;;;7.97;60.47
62779;BME280;48821;48.796;2.396;2024-03-08T04:22:20;100582.22;;;7.99;60.48
62779;BME280;48821;48.796;2.396;2024-03-08T04:23:33;100577.03;;;7.97;60.08
62779;BME280;48821;48.796;2.396;2024-03-08T04:24:46;100573.50;;;7.98;60.01
62779;BME280;48821;48.796;2.396;2024-03-08T04:25:57;100575.34;;;7.95;60.37
62779;BME280;48821;48.796;2.396;2024-03-08T04:27:09;100559.75;;;7.90;60.14
62779;BME280;48821;48.796;2.396;2024-03-08T04:28:21;100565.81;;;7.91;59.84
62779;BME280;48821;48.796;2.396;2024-03-08T04:29:33;100570.19;;;7.92;59.98
62779;BME280;48821;48.796;2.396;2024-03-08T04:30:44;100577.09;;;7.93;60.52
62779;BME280;48821;48.796;2.396;2024-03-08T04:31:57;100566.75;;;7.88;60.56
62779;BME280;48821;48.796;2.396;2024-03-08T04:33:08;100572.72;;;7.95;60.20
62779;BME280;48821;48.796;2.396;2024-03-08T04:34:21;100571.00;;;7.94;59.93
62779;BME280;48821;48.796;2.396;2024-03-08T04:35:32;100564.88;;;7.93;60.14
62779;BME280;48821;48.796;2.396;2024-03-08T04:36:44;100553.56;;;7.93;60.30
62779;BME280;48821;48.796;2.396;2024-03-08T04:37:56;100558.78;;;7.93;60.12
62779;BME280;48821;48.796;2.396;2024-03-08T04:39:08;100557.97;;;7.92;60.80
62779;BME280;48821;48.796;2.396;2024-03-08T04:40:23;100557.03;;;7.93;60.58
62779;BME280;48821;48.796;2.396;2024-03-08T04:41:34;100561.38;;;7.94;60.16
62779;BME280;48821;48.796;2.396;2024-03-08T04:42:46;100549.25;;;7.92;60.75
62779;BME280;48821;48.796;2.396;2024-03-08T04:43:58;100546.63;;;7.92;60.60
62779;BME280;48821;48.796;2.396;2024-03-08T04:45:10;100554.41;;;7.95;60.21
62779;BME280;48821;48.796;2.396;2024-03-08T04:46:24;100551.84;;;7.92;60.45
62779;BME280;48821;48.796;2.396;2024-03-08T04:47:36;100554.44;;;7.93;60.58
62779;BME280;48821;48.796;2.396;2024-03-08T04:48:47;100555.28;;;7.94;60.81
62779;BME280;48821;48.796;2.396;2024-03-08T04:49:59;100553.59;;;7.91;60.36
62779;BME280;48821;48.796;2.396;2024-03-08T04:51:11;100551.84;;;7.92;60.14
62779;BME280;48821;48.796;2.396;2024-03-08T04:52:23;100546.69;;;7.88;60.20
62779;BME280;48821;48.796;2.396;2024-03-08T04:53:35;100549.31;;;7.88;60.24
62779;BME280;48821;48.796;2.396;2024-03-08T04:54:47;100544.88;;;7.91;60.37
62779;BME280;48821;48.796;2.396;2024-03-08T04:55:59;100538.03;;;7.86;60.47
62779;BME280;48821;48.796;2.396;2024-03-08T04:57:11;100543.25;;;7.86;60.52
62779;BME280;48821;48.796;2.396;2024-03-08T04:58:23;100536.28;;;7.85;60.40
62779;BME280;48821;48.796;2.396;2024-03-08T04:59:36;100538.03;;;7.86;60.73
62779;BME280;48821;48.796;2.396;2024-03-08T05:00:48;100535.34;;;7.88;60.04
62779;BME280;48821;48.796;2.396;2024-03-08T05:02:00;100532.84;;;7.83;59.95
62779;BME280;48821;48.796;2.396;2024-03-08T05:03:13;100531.22;;;7.79;60.39
62779;BME280;48821;48.796;2.396;2024-03-08T05:04:25;100528.59;;;7.79;60.75
62779;BME280;48821;48.796;2.396;2024-03-08T05:05:37;100526.88;;;7.78;60.31
62779;BME280;48821;48.796;2.396;2024-03-08T05:06:49;100529.41;;;7.81;60.89
62779;BME280;48821;48.796;2.396;2024-03-08T05:08:01;100526.03;;;7.78;60.50
62779;BME280;48821;48.796;2.396;2024-03-08T05:09:13;100527.72;;;7.80;60.81
62779;BME280;48821;48.796;2.396;2024-03-08T05:10:24;100526.00;;;7.79;60.54
62779;BME280;48821;48.796;2.396;2024-03-08T05:11:36;100525.09;;;7.80;60.95
62779;BME280;48821;48.796;2.396;2024-03-08T05:12:48;100526.00;;;7.79;60.77
62779;BME280;48821;48.796;2.396;2024-03-08T05:14:00;100524.34;;;7.75;60.45
62779;BME280;48821;48.796;2.396;2024-03-08T05:15:12;100520.81;;;7.76;60.69
62779;BME280;48821;48.796;2.396;2024-03-08T05:16:24;100511.28;;;7.73;60.46
62779;BME280;48821;48.796;2.396;2024-03-08T05:17:36;100520.81;;;7.76;60.79
62779;BME280;48821;48.796;2.396;2024-03-08T05:18:47;100519.13;;;7.75;60.73
62779;BME280;48821;48.796;2.396;2024-03-08T05:19:59;100515.72;;;7.71;60.21
62779;BME280;48821;48.796;2.396;2024-03-08T05:21:11;100517.47;;;7.71;60.93
62779;BME280;48821;48.796;2.396;2024-03-08T05:22:24;100508.78;;;7.69;60.68
62779;BME280;48821;48.796;2.396;2024-03-08T05:23:37;100511.47;;;7.67;60.81
62779;BME280;48821;48.796;2.396;2024-03-08T05:24:49;100514.84;;;7.71;60.39
62779;BME280;48821;48.796;2.396;2024-03-08T05:26:01;100510.53;;;7.70;60.95
62779;BME280;48821;48.796;2.396;2024-03-08T05:27:12;100500.19;;;7.63;60.43
62779;BME280;48821;48.796;2.396;2024-03-08T05:28:24;100510.53;;;7.70;60.77
62779;BME280;48821;48.796;2.396;2024-03-08T05:29:36;100508.84;;;7.67;60.55
62779;BME280;48821;48.796;2.396;2024-03-08T05:30:48;100511.41;;;7.69;61.04
62779;BME280;48821;48.796;2.396;2024-03-08T05:32:00;100512.31;;;7.68;60.23
62779;BME280;48821;48.796;2.396;2024-03-08T05:33:12;100507.97;;;7.67;60.93
62779;BME280;48821;48.796;2.396;2024-03-08T05:34:24;100503.72;;;7.62;60.76
62779;BME280;48821;48.796;2.396;2024-03-08T05:35:37;100508.03;;;7.63;61.02
62779;BME280;48821;48.796;2.396;2024-03-08T05:36:49;100508.84;;;7.65;60.71
62779;BME280;48821;48.796;2.396;2024-03-08T05:38:00;100498.50;;;7.62;60.49
62779;BME280;48821;48.796;2.396;2024-03-08T05:39:12;100504.59;;;7.63;61.03
62779;BME280;48821;48.796;2.396;2024-03-08T05:40:23;100503.72;;;7.62;60.62
62779;BME280;48821;48.796;2.396;2024-03-08T05:41:35;100508.03;;;7.63;60.79
62779;BME280;48821;48.796;2.396;2024-03-08T05:42:47;100517.63;;;7.64;61.07
62779;BME280;48821;48.796;2.396;2024-03-08T05:43:59;100508.97;;;7.62;60.59
62779;BME280;48821;48.796;2.396;2024-03-08T05:45:11;100510.72;;;7.62;61.05
62779;BME280;48821;48.796;2.396;2024-03-08T05:46:23;100507.28;;;7.60;60.73
62779;BME280;48821;48.796;2.396;2024-03-08T05:47:36;100517.69;;;7.61;61.20
62779;BME280;48821;48.796;2.396;2024-03-08T05:48:48;100515.06;;;7.61;60.94
62779;BME280;48821;48.796;2.396;2024-03-08T05:50:00;100516.81;;;7.61;61.17
62779;BME280;48821;48.796;2.396;2024-03-08T05:51:13;100515.97;;;7.60;60.52
62779;BME280;48821;48.796;2.396;2024-03-08T05:52:25;100516.81;;;7.61;61.31
62779;BME280;48821;48.796;2.396;2024-03-08T05:53:37;100513.38;;;7.59;60.93
62779;BME280;48821;48.796;2.396;2024-03-08T05:54:49;100518.63;;;7.59;61.49
62779;BME280;48821;48.796;2.396;2024-03-08T05:56:01;100518.59;;;7.60;61.29
62779;BME280;48821;48.796;2.396;2024-03-08T05:57:12;100522.09;;;7.59;61.15
62779;BME280;48821;48.796;2.396;2024-03-08T05:58:25;100513.38;;;7.59;60.77
62779;BME280;48821;48.796;2.396;2024-03-08T05:59:37;100505.69;;;7.52;60.79
62779;BME280;48821;48.796;2.396;2024-03-08T06:00:49;100509.09;;;7.56;60.90
62779;BME280;48821;48.796;2.396;2024-03-08T06:02:01;100520.34;;;7.60;60.75
62779;BME280;48821;48.796;2.396;2024-03-08T06:03:12;100512.53;;;7.58;61.02
62779;BME280;48821;48.796;2.396;2024-03-08T06:04:23;100518.66;;;7.57;60.78
62779;BME280;48821;48.796;2.396;2024-03-08T06:05:36;100507.38;;;7.55;61.36
62779;BME280;48821;48.796;2.396;2024-03-08T06:06:53;100503.84;;;7.58;60.69
62779;BME280;48821;48.796;2.396;2024-03-08T06:08:07;100507.34;;;7.57;61.21
62779;BME280;48821;48.796;2.396;2024-03-08T06:09:18;100503.84;;;7.56;61.16
62779;BME280;48821;48.796;2.396;2024-03-08T06:10:34;100495.25;;;7.52;61.40
62779;BME280;48821;48.796;2.396;2024-03-08T06:11:46;100500.47;;;7.52;61.14
62779;BME280;48821;48.796;2.396;2024-03-08T06:12:58;100501.34;;;7.51;60.87
62779;BME280;48821;48.796;2.396;2024-03-08T06:14:10;100502.22;;;7.52;61.42
62779;BME280;48821;48.796;2.396;2024-03-08T06:15:22;100499.59;;;7.52;61.32
62779;BME280;48821;48.796;2.396;2024-03-08T06:16:33;100492.63;;;7.51;61.26
62779;BME280;48821;48.796;2.396;2024-03-08T06:17:46;100486.53;;;7.52;61.21
62779;BME280;48821;48.796;2.396;2024-03-08T06:18:58;100485.66;;;7.53;61.53
62779;BME280;48821;48.796;2.396;2024-03-08T06:20:10;100483.91;;;7.52;61.07
62779;BME280;48821;48.796;2.396;2024-03-08T06:21:22;100486.53;;;7.52;60.67
62779;BME280;48821;48.796;2.396;2024-03-08T06:22:34;100487.41;;;7.51;60.76